sensor_id;sensor_type;location;lat;lon;timestamp;pressure;altitude;pressure_sealevel;temperature;humidity
72428;BME280;60419;48.880;18.036;2023-09-19T00:02:55;98350.84;;;21.38;71.82
72428;BME280;60419;48.880;18.036;2023-09-19T00:05:44;98352.84;;;21.19;72.75
72428;BME280;60419;48.880;18.036;2023-09-19T00:08:29;98355.94;;;21.46;72.29
72428;BME280;60419;48.880;18.036;2023-09-19T00:11:15;98343.78;;;21.08;74.08
72428;BME280;60419;48.880;18.036;2023-09-19T00:14:00;98353.22;;;21.25;73.78
72428;BME280;60419;48.880;18.036;2023-09-19T00:16:46;98355.97;;;21.32;73.92
72428;BME280;60419;48.880;18.036;2023-09-19T00:19:31;98355.16;;;21.39;73.58
72428;BME280;60419;48.880;18.036;2023-09-19T00:22:18;98354.78;;;21.33;73.86
72428;BME280;60419;48.880;18.036;2023-09-19T00:25:04;98359.47;;;20.86;75.18
72428;BME280;60419;48.880;18.036;2023-09-19T00:27:51;98350.06;;;21.09;75.48
72428;BME280;60419;48.880;18.036;2023-09-19T00:30:37;98352.41;;;20.92;75.60
72428;BME280;60419;48.880;18.036;2023-09-19T00:33:23;98353.63;;;19.79;81.06
72428;BME280;60419;48.880;18.036;2023-09-19T00:36:09;98345.69;;;20.47;78.65
72428;BME280;60419;48.880;18.036;2023-09-19T00:38:55;98343.19;;;20.16;79.57
72428;BME280;60419;48.880;18.036;2023-09-19T00:41:40;98340.03;;;20.07;79.00
72428;BME280;60419;48.880;18.036;2023-09-19T00:44:26;98331.00;;;20.03;78.65
72428;BME280;60419;48.880;18.036;2023-09-19T00:47:11;98341.38;;;20.60;77.56
72428;BME280;60419;48.880;18.036;2023-09-19T00:50:03;98340.66;;;21.20;74.80
72428;BME280;60419;48.880;18.036;2023-09-19T00:52:50;98342.97;;;21.54;73.00
72428;BME280;60419;48.880;18.036;2023-09-19T00:55:39;98349.16;;;21.98;71.27
72428;BME280;60419;48.880;18.036;2023-09-19T00:58:25;98345.59;;;22.08;70.19
72428;BME280;60419;48.880;18.036;2023-09-19T01:01:11;98341.94;;;22.32;67.67
72428;BME280;60419;48.880;18.036;2023-09-19T01:03:57;98341.44;;;22.48;67.16
72428;BME280;60419;48.880;18.036;2023-09-19T01:06:42;98346.09;;;22.62;67.17
72428;BME280;60419;48.880;18.036;2023-09-19T01:09:28;98343.66;;;22.71;66.12
72428;BME280;60419;48.880;18.036;2023-09-19T01:12:16;98340.59;;;22.62;66.23
72428;BME280;60419;48.880;18.036;2023-09-19T01:15:06;98345.34;;;21.41;72.32
72428;BME280;60419;48.880;18.036;2023-09-19T01:18:34;98334.66;;;21.83;68.77
72428;BME280;60419;48.880;18.036;2023-09-19T01:24:54;98330.69;;;22.05;68.27
72428;BME280;60419;48.880;18.036;2023-09-19T01:30:46;98335.63;;;22.35;68.11
72428;BME280;60419;48.880;18.036;2023-09-19T01:36:42;98340.63;;;21.53;73.03
72428;BME280;60419;48.880;18.036;2023-09-19T01:39:30;98333.50;;;21.77;72.21
72428;BME280;60419;48.880;18.036;2023-09-19T01:42:31;98342.88;;;21.97;71.71
72428;BME280;60419;48.880;18.036;2023-09-19T01:51:34;98336.59;;;21.86;71.97
72428;BME280;60419;48.880;18.036;2023-09-19T01:54:27;98351.84;;;22.15;70.38
72428;BME280;60419;48.880;18.036;2023-09-19T01:57:28;98337.47;;;22.60;68.75
72428;BME280;60419;48.880;18.036;2023-09-19T02:00:16;98323.34;;;22.54;68.19
72428;BME280;60419;48.880;18.036;2023-09-19T02:03:04;98334.78;;;22.46;69.12
72428;BME280;60419;48.880;18.036;2023-09-19T02:05:50;98339.91;;;22.47;68.65
72428;BME280;60419;48.880;18.036;2023-09-19T02:08:36;98337.84;;;22.58;68.36
72428;BME280;60419;48.880;18.036;2023-09-19T02:11:22;98336.69;;;22.56;68.17
72428;BME280;60419;48.880;18.036;2023-09-19T02:14:07;98344.13;;;22.59;68.05
72428;BME280;60419;48.880;18.036;2023-09-19T02:16:53;98336.28;;;22.57;67.87
72428;BME280;60419;48.880;18.036;2023-09-19T02:19:39;98340.38;;;22.31;68.80
72428;BME280;60419;48.880;18.036;2023-09-19T02:22:26;98336.84;;;22.27;69.25
72428;BME280;60419;48.880;18.036;2023-09-19T02:25:12;98337.81;;;22.66;67.78
72428;BME280;60419;48.880;18.036;2023-09-19T02:27:59;98330.75;;;22.65;67.63
72428;BME280;60419;48.880;18.036;2023-09-19T02:30:47;98332.94;;;22.28;68.69
72428;BME280;60419;48.880;18.036;2023-09-19T02:33:33;98336.22;;;21.87;70.49
72428;BME280;60419;48.880;18.036;2023-09-19T02:36:20;98334.97;;;22.10;70.12
72428;BME280;60419;48.880;18.036;2023-09-19T02:39:05;98335.41;;;21.90;71.70
72428;BME280;60419;48.880;18.036;2023-09-19T02:41:51;98341.66;;;22.12;70.62
72428;BME280;60419;48.880;18.036;2023-09-19T02:44:36;98343.31;;;21.81;71.47
72428;BME280;60419;48.880;18.036;2023-09-19T02:47:23;98346.00;;;21.88;71.01
72428;BME280;60419;48.880;18.036;2023-09-19T02:50:09;98339.44;;;21.46;72.30
72428;BME280;60419;48.880;18.036;2023-09-19T02:52:56;98339.84;;;21.41;73.01
72428;BME280;60419;48.880;18.036;2023-09-19T02:55:41;98343.78;;;21.44;72.57
72428;BME280;60419;48.880;18.036;2023-09-19T02:58:27;98348.06;;;21.59;72.04
72428;BME280;60419;48.880;18.036;2023-09-19T03:01:15;98342.59;;;21.41;72.21
72428;BME280;60419;48.880;18.036;2023-09-19T03:04:00;98340.25;;;21.50;71.63
72428;BME280;60419;48.880;18.036;2023-09-19T03:06:46;98341.78;;;21.52;71.91
72428;BME280;60419;48.880;18.036;2023-09-19T03:09:33;98345.72;;;21.54;71.98
72428;BME280;60419;48.880;18.036;2023-09-19T03:12:19;98352.78;;;21.66;71.77
72428;BME280;60419;48.880;18.036;2023-09-19T03:15:05;98352.03;;;21.40;72.74
72428;BME280;60419;48.880;18.036;2023-09-19T03:17:50;98355.94;;;21.07;74.25
72428;BME280;60419;48.880;18.036;2023-09-19T03:20:38;98354.75;;;20.87;75.58
72428;BME280;60419;48.880;18.036;2023-09-19T03:23:23;98359.00;;;20.55;76.87
72428;BME280;60419;48.880;18.036;2023-09-19T03:26:09;98370.75;;;20.56;76.61
72428;BME280;60419;48.880;18.036;2023-09-19T03:28:54;98369.59;;;20.53;77.40
72428;BME280;60419;48.880;18.036;2023-09-19T03:31:40;98380.06;;;20.30;78.17
72428;BME280;60419;48.880;18.036;2023-09-19T03:34:25;98384.19;;;19.84;79.50
72428;BME280;60419;48.880;18.036;2023-09-19T03:37:10;98378.84;;;20.16;77.58
72428;BME280;60419;48.880;18.036;2023-09-19T03:39:56;98382.88;;;19.60;79.89
72428;BME280;60419;48.880;18.036;2023-09-19T03:42:42;98386.81;;;19.70;80.20
72428;BME280;60419;48.880;18.036;2023-09-19T03:45:27;98398.44;;;19.52;81.78
72428;BME280;60419;48.880;18.036;2023-09-19T03:48:13;98392.47;;;19.36;82.16
72428;BME280;60419;48.880;18.036;2023-09-19T03:50:59;98411.69;;;19.47;81.92
72428;BME280;60419;48.880;18.036;2023-09-19T03:53:44;98414.72;;;19.31;82.28
72428;BME280;60419;48.880;18.036;2023-09-19T03:56:30;98419.81;;;18.92;83.91
72428;BME280;60419;48.880;18.036;2023-09-19T03:59:16;98418.81;;;18.70;85.93
72428;BME280;60419;48.880;18.036;2023-09-19T04:02:03;98416.38;;;18.98;85.54
72428;BME280;60419;48.880;18.036;2023-09-19T04:04:50;98410.81;;;19.32;84.07
72428;BME280;60419;48.880;18.036;2023-09-19T04:07:36;98401.50;;;18.99;84.15
72428;BME280;60419;48.880;18.036;2023-09-19T04:10:22;98421.66;;;18.80;84.36
72428;BME280;60419;48.880;18.036;2023-09-19T04:13:07;98429.72;;;19.07;83.88
72428;BME280;60419;48.880;18.036;2023-09-19T04:15:53;98435.69;;;19.13;82.75
72428;BME280;60419;48.880;18.036;2023-09-19T04:18:38;98417.41;;;18.86;82.12
72428;BME280;60419;48.880;18.036;2023-09-19T04:21:24;98438.59;;;18.93;82.91
72428;BME280;60419;48.880;18.036;2023-09-19T04:24:10;98442.38;;;19.19;81.56
72428;BME280;60419;48.880;18.036;2023-09-19T04:26:56;98450.75;;;19.40;78.52
72428;BME280;60419;48.880;18.036;2023-09-19T04:29:44;98445.81;;;18.71;81.03
72428;BME280;60419;48.880;18.036;2023-09-19T04:32:30;98456.44;;;18.50;81.01
72428;BME280;60419;48.880;18.036;2023-09-19T04:35:17;98463.78;;;18.12;83.69
72428;BME280;60419;48.880;18.036;2023-09-19T04:38:03;98477.31;;;18.61;81.70
72428;BME280;60419;48.880;18.036;2023-09-19T04:40:48;98492.09;;;18.57;81.46
72428;BME280;60419;48.880;18.036;2023-09-19T04:43:34;98493.66;;;18.24;83.30
72428;BME280;60419;48.880;18.036;2023-09-19T04:46:19;98486.16;;;18.21;81.54
72428;BME280;60419;48.880;18.036;2023-09-19T04:49:05;98486.78;;;18.11;81.79
72428;BME280;60419;48.880;18.036;2023-09-19T04:51:51;98473.34;;;17.72;84.32
72428;BME280;60419;48.880;18.036;2023-09-19T04:54:36;98504.00;;;18.11;81.32
72428;BME280;60419;48.880;18.036;2023-09-19T04:57:21;98505.09;;;18.63;78.70
72428;BME280;60419;48.880;18.036;2023-09-19T05:00:08;98493.53;;;19.15;76.89
72428;BME280;60419;48.880;18.036;2023-09-19T05:02:57;98491.59;;;18.78;74.23
72428;BME280;60419;48.880;18.036;2023-09-19T05:05:43;98503.28;;;19.12;74.07
72428;BME280;60419;48.880;18.036;2023-09-19T05:08:28;98499.22;;;18.95;71.85
72428;BME280;60419;48.880;18.036;2023-09-19T05:11:13;98513.56;;;19.22;73.57
72428;BME280;60419;48.880;18.036;2023-09-19T05:13:59;98517.41;;;18.80;75.74
72428;BME280;60419;48.880;18.036;2023-09-19T05:16:48;98522.19;;;18.57;75.59
72428;BME280;60419;48.880;18.036;2023-09-19T05:19:34;98525.25;;;18.52;75.73
72428;BME280;60419;48.880;18.036;2023-09-19T05:22:20;98538.31;;;18.09;78.15
72428;BME280;60419;48.880;18.036;2023-09-19T05:25:06;98545.59;;;18.24;77.84
72428;BME280;60419;48.880;18.036;2023-09-19T05:27:53;98549.44;;;17.50;79.04
72428;BME280;60419;48.880;18.036;2023-09-19T05:30:38;98551.63;;;17.41;80.41
72428;BME280;60419;48.880;18.036;2023-09-19T05:33:24;98560.47;;;17.57;78.28
72428;BME280;60419;48.880;18.036;2023-09-19T05:36:10;98562.59;;;17.45;78.93
72428;BME280;60419;48.880;18.036;2023-09-19T05:38:57;98567.34;;;17.71;77.93
72428;BME280;60419;48.880;18.036;2023-09-19T05:41:42;98562.25;;;17.69;78.43
72428;BME280;60419;48.880;18.036;2023-09-19T05:44:28;98572.56;;;17.79;78.21
72428;BME280;60419;48.880;18.036;2023-09-19T05:47:13;98569.84;;;17.56;78.50
72428;BME280;60419;48.880;18.036;2023-09-19T05:49:58;98570.81;;;17.91;77.22
72428;BME280;60419;48.880;18.036;2023-09-19T05:52:51;98572.22;;;18.31;76.05
72428;BME280;60419;48.880;18.036;2023-09-19T05:55:37;98591.34;;;18.04;76.96
72428;BME280;60419;48.880;18.036;2023-09-19T05:58:22;98589.13;;;18.13;77.40
72428;BME280;60419;48.880;18.036;2023-09-19T06:01:08;98579.97;;;18.02;78.05
72428;BME280;60419;48.880;18.036;2023-09-19T06:03:54;98576.00;;;18.49;75.77
72428;BME280;60419;48.880;18.036;2023-09-19T06:06:40;98584.66;;;18.55;75.45
72428;BME280;60419;48.880;18.036;2023-09-19T06:09:25;98590.25;;;18.09;77.08
72428;BME280;60419;48.880;18.036;2023-09-19T06:12:13;98596.13;;;18.64;75.64
72428;BME280;60419;48.880;18.036;2023-09-19T06:15:03;98590.97;;;18.85;74.82
72428;BME280;60419;48.880;18.036;2023-09-19T06:17:51;98608.22;;;18.89;74.47
72428;BME280;60419;48.880;18.036;2023-09-19T06:20:37;98606.91;;;19.10;75.28
72428;BME280;60419;48.880;18.036;2023-09-19T06:23:22;98612.53;;;19.21;73.82
72428;BME280;60419;48.880;18.036;2023-09-19T06:26:09;98615.59;;;19.53;73.51
72428;BME280;60419;48.880;18.036;2023-09-19T06:28:54;98609.25;;;19.83;72.36
72428;BME280;60419;48.880;18.036;2023-09-19T06:31:41;98607.06;;;19.58;73.38
72428;BME280;60419;48.880;18.036;2023-09-19T06:34:27;98607.72;;;19.85;73.32
72428;BME280;60419;48.880;18.036;2023-09-19T06:37:12;98618.97;;;19.73;74.25
72428;BME280;60419;48.880;18.036;2023-09-19T06:39:57;98624.91;;;19.82;74.53
72428;BME280;60419;48.880;18.036;2023-09-19T06:42:44;98630.94;;;19.58;74.39
72428;BME280;60419;48.880;18.036;2023-09-19T06:45:33;98633.31;;;20.00;73.85
72428;BME280;60419;48.880;18.036;2023-09-19T06:48:18;98632.78;;;19.50;74.14
72428;BME280;60419;48.880;18.036;2023-09-19T06:51:04;98638.84;;;19.66;74.21
72428;BME280;60419;48.880;18.036;2023-09-19T06:53:50;98651.16;;;19.83;74.44
72428;BME280;60419;48.880;18.036;2023-09-19T06:56:39;98646.19;;;19.96;74.02
72428;BME280;60419;48.880;18.036;2023-09-19T06:59:26;98650.09;;;19.95;73.54
72428;BME280;60419;48.880;18.036;2023-09-19T07:02:12;98629.28;;;19.90;74.34
72428;BME280;60419;48.880;18.036;2023-09-19T07:04:58;98653.91;;;19.83;75.72
72428;BME280;60419;48.880;18.036;2023-09-19T07:07:44;98658.34;;;19.58;76.73
72428;BME280;60419;48.880;18.036;2023-09-19T07:10:30;98667.75;;;18.46;81.38
72428;BME280;60419;48.880;18.036;2023-09-19T07:13:16;98662.09;;;18.85;80.60
72428;BME280;60419;48.880;18.036;2023-09-19T07:16:04;98674.56;;;19.43;79.16
72428;BME280;60419;48.880;18.036;2023-09-19T07:18:49;98672.56;;;19.70;78.14
72428;BME280;60419;48.880;18.036;2023-09-19T07:21:35;98669.28;;;19.58;78.44
72428;BME280;60419;48.880;18.036;2023-09-19T07:24:27;98656.31;;;19.88;75.86
72428;BME280;60419;48.880;18.036;2023-09-19T07:27:13;98658.81;;;20.04;75.92
72428;BME280;60419;48.880;18.036;2023-09-19T07:29:59;98661.72;;;20.26;75.22
72428;BME280;60419;48.880;18.036;2023-09-19T07:32:44;98666.72;;;20.13;75.33
72428;BME280;60419;48.880;18.036;2023-09-19T07:35:30;98663.44;;;19.96;75.93
72428;BME280;60419;48.880;18.036;2023-09-19T07:38:15;98659.75;;;19.82;76.72
72428;BME280;60419;48.880;18.036;2023-09-19T07:41:01;98672.81;;;19.58;78.81
72428;BME280;60419;48.880;18.036;2023-09-19T07:43:47;98671.06;;;19.76;77.46
72428;BME280;60419;48.880;18.036;2023-09-19T07:46:33;98665.59;;;19.80;77.86
72428;BME280;60419;48.880;18.036;2023-09-19T07:49:18;98670.19;;;19.69;78.35
72428;BME280;60419;48.880;18.036;2023-09-19T07:52:04;98669.06;;;19.09;81.49
72428;BME280;60419;48.880;18.036;2023-09-19T07:54:49;98670.88;;;19.28;81.80
72428;BME280;60419;48.880;18.036;2023-09-19T07:57:35;98669.16;;;18.37;80.20
72428;BME280;60419;48.880;18.036;2023-09-19T08:00:21;98680.00;;;18.30;81.16
72428;BME280;60419;48.880;18.036;2023-09-19T08:03:06;98688.47;;;17.59;82.86
72428;BME280;60419;48.880;18.036;2023-09-19T08:05:56;98692.88;;;18.06;82.24
72428;BME280;60419;48.880;18.036;2023-09-19T08:08:43;98691.22;;;18.01;83.04
72428;BME280;60419;48.880;18.036;2023-09-19T08:11:28;98695.78;;;18.40;80.71
72428;BME280;60419;48.880;18.036;2023-09-19T08:14:16;98693.53;;;18.45;80.01
72428;BME280;60419;48.880;18.036;2023-09-19T08:17:01;98696.16;;;18.15;80.21
72428;BME280;60419;48.880;18.036;2023-09-19T08:19:47;98709.56;;;18.47;80.66
72428;BME280;60419;48.880;18.036;2023-09-19T08:22:34;98712.84;;;18.56;80.00
72428;BME280;60419;48.880;18.036;2023-09-19T08:25:21;98709.72;;;18.81;81.08
72428;BME280;60419;48.880;18.036;2023-09-19T08:28:07;98711.34;;;19.12;79.67
72428;BME280;60419;48.880;18.036;2023-09-19T08:31:02;98716.16;;;18.92;79.02
72428;BME280;60419;48.880;18.036;2023-09-19T08:33:50;98703.91;;;18.36;81.89
72428;BME280;60419;48.880;18.036;2023-09-19T08:36:36;98727.19;;;18.73;82.65
72428;BME280;60419;48.880;18.036;2023-09-19T08:39:24;98720.59;;;19.04;81.61
72428;BME280;60419;48.880;18.036;2023-09-19T08:42:09;98734.19;;;18.70;81.41
72428;BME280;60419;48.880;18.036;2023-09-19T08:44:57;98730.16;;;18.87;83.04
72428;BME280;60419;48.880;18.036;2023-09-19T08:48:34;98733.31;;;19.16;81.50
72428;BME280;60419;48.880;18.036;2023-09-19T08:51:03;98733.50;;;19.03;78.74
72428;BME280;60419;48.880;18.036;2023-09-19T08:53:56;98730.38;;;19.31;80.05
72428;BME280;60419;48.880;18.036;2023-09-19T08:56:45;98725.59;;;19.89;78.20
72428;BME280;60419;48.880;18.036;2023-09-19T08:59:32;98736.28;;;20.01;78.80
72428;BME280;60419;48.880;18.036;2023-09-19T09:02:20;98738.50;;;20.26;77.11
72428;BME280;60419;48.880;18.036;2023-09-19T09:05:08;98734.56;;;20.23;74.79
72428;BME280;60419;48.880;18.036;2023-09-19T09:07:54;98741.88;;;20.49;74.66
72428;BME280;60419;48.880;18.036;2023-09-19T09:10:44;98746.38;;;20.72;74.47
72428;BME280;60419;48.880;18.036;2023-09-19T09:13:30;98752.09;;;20.56;74.89
72428;BME280;60419;48.880;18.036;2023-09-19T09:16:16;98752.41;;;20.44;75.38
72428;BME280;60419;48.880;18.036;2023-09-19T09:19:04;98752.03;;;20.45;75.24
72428;BME280;60419;48.880;18.036;2023-09-19T09:21:51;98749.75;;;20.13;75.60
72428;BME280;60419;48.880;18.036;2023-09-19T09:24:37;98737.56;;;20.11;77.24
72428;BME280;60419;48.880;18.036;2023-09-19T09:27:24;98758.31;;;20.46;75.35
72428;BME280;60419;48.880;18.036;2023-09-19T09:30:33;98757.00;;;19.98;74.98
72428;BME280;60419;48.880;18.036;2023-09-19T09:33:20;98738.00;;;19.75;73.30
72428;BME280;60419;48.880;18.036;2023-09-19T09:36:06;98761.47;;;19.76;73.97
72428;BME280;60419;48.880;18.036;2023-09-19T09:38:53;98761.78;;;19.41;75.54
72428;BME280;60419;48.880;18.036;2023-09-19T09:41:40;98758.41;;;19.21;77.68
72428;BME280;60419;48.880;18.036;2023-09-19T09:44:25;98771.78;;;19.26;76.24
72428;BME280;60419;48.880;18.036;2023-09-19T09:47:12;98774.28;;;19.39;75.81
72428;BME280;60419;48.880;18.036;2023-09-19T09:50:13;98776.84;;;18.98;75.21
72428;BME280;60419;48.880;18.036;2023-09-19T09:53:02;98769.72;;;18.47;77.38
72428;BME280;60419;48.880;18.036;2023-09-19T09:58:54;98782.09;;;19.10;74.55
72428;BME280;60419;48.880;18.036;2023-09-19T10:01:47;98786.75;;;19.63;75.09
72428;BME280;60419;48.880;18.036;2023-09-19T10:04:35;98787.25;;;19.42;74.38
72428;BME280;60419;48.880;18.036;2023-09-19T10:07:36;98788.25;;;19.90;72.14
72428;BME280;60419;48.880;18.036;2023-09-19T10:13:25;98798.75;;;19.85;72.14
72428;BME280;60419;48.880;18.036;2023-09-19T10:16:16;98807.75;;;19.82;72.81
72428;BME280;60419;48.880;18.036;2023-09-19T10:19:07;98791.59;;;20.07;70.98
72428;BME280;60419;48.880;18.036;2023-09-19T10:21:54;98796.31;;;20.44;71.55
72428;BME280;60419;48.880;18.036;2023-09-19T10:24:43;98791.00;;;19.90;72.68
72428;BME280;60419;48.880;18.036;2023-09-19T10:27:30;98787.88;;;19.58;73.44
72428;BME280;60419;48.880;18.036;2023-09-19T10:30:23;98784.38;;;19.91;73.36
72428;BME280;60419;48.880;18.036;2023-09-19T10:33:09;98789.31;;;20.16;71.87
72428;BME280;60419;48.880;18.036;2023-09-19T10:35:56;98781.94;;;20.61;70.50
72428;BME280;60419;48.880;18.036;2023-09-19T10:38:45;98787.50;;;20.68;68.68
72428;BME280;60419;48.880;18.036;2023-09-19T10:41:34;98783.38;;;20.92;67.54
72428;BME280;60419;48.880;18.036;2023-09-19T10:44:23;98799.41;;;21.35;69.28
72428;BME280;60419;48.880;18.036;2023-09-19T10:47:10;98791.25;;;21.53;66.57
72428;BME280;60419;48.880;18.036;2023-09-19T10:49:56;98796.34;;;21.54;65.01
72428;BME280;60419;48.880;18.036;2023-09-19T10:52:42;98788.19;;;21.68;65.98
72428;BME280;60419;48.880;18.036;2023-09-19T10:55:28;98785.34;;;21.50;66.73
72428;BME280;60419;48.880;18.036;2023-09-19T10:58:25;98795.03;;;22.14;63.99
72428;BME280;60419;48.880;18.036;2023-09-19T11:01:11;98780.16;;;22.47;62.48
72428;BME280;60419;48.880;18.036;2023-09-19T11:04:37;98779.38;;;22.40;64.52
72428;BME280;60419;48.880;18.036;2023-09-19T11:07:24;98764.44;;;23.05;60.92
72428;BME280;60419;48.880;18.036;2023-09-19T11:10:49;98775.78;;;22.10;61.69
72428;BME280;60419;48.880;18.036;2023-09-19T11:13:36;98786.00;;;22.17;62.74
72428;BME280;60419;48.880;18.036;2023-09-19T11:16:22;98785.25;;;22.31;61.70
72428;BME280;60419;48.880;18.036;2023-09-19T11:19:08;98781.16;;;21.85;62.43
72428;BME280;60419;48.880;18.036;2023-09-19T11:21:56;98794.66;;;22.23;63.51
72428;BME280;60419;48.880;18.036;2023-09-19T11:24:42;98791.94;;;22.30;63.09
72428;BME280;60419;48.880;18.036;2023-09-19T11:27:27;98785.31;;;23.10;60.61
72428;BME280;60419;48.880;18.036;2023-09-19T11:30:26;98789.94;;;22.20;61.39
72428;BME280;60419;48.880;18.036;2023-09-19T11:33:24;98777.06;;;22.99;59.69
72428;BME280;60419;48.880;18.036;2023-09-19T11:36:17;98784.91;;;22.65;59.01
72428;BME280;60419;48.880;18.036;2023-09-19T11:39:25;98789.13;;;22.12;60.29
72428;BME280;60419;48.880;18.036;2023-09-19T11:42:44;98783.53;;;21.94;61.46
72428;BME280;60419;48.880;18.036;2023-09-19T11:48:43;98794.00;;;21.60;62.01
72428;BME280;60419;48.880;18.036;2023-09-19T11:51:40;98799.03;;;20.88;64.13
72428;BME280;60419;48.880;18.036;2023-09-19T11:54:26;98793.69;;;21.06;65.55
72428;BME280;60419;48.880;18.036;2023-09-19T11:57:20;98802.28;;;21.01;67.52
72428;BME280;60419;48.880;18.036;2023-09-19T12:00:06;98800.31;;;20.98;68.82
72428;BME280;60419;48.880;18.036;2023-09-19T12:02:57;98799.47;;;20.97;68.58
72428;BME280;60419;48.880;18.036;2023-09-19T12:05:48;98807.84;;;20.63;67.90
72428;BME280;60419;48.880;18.036;2023-09-19T12:08:33;98806.66;;;21.09;67.12
72428;BME280;60419;48.880;18.036;2023-09-19T12:11:19;98810.63;;;20.67;68.50
72428;BME280;60419;48.880;18.036;2023-09-19T12:14:06;98811.13;;;20.80;69.96
72428;BME280;60419;48.880;18.036;2023-09-19T12:16:58;98810.75;;;20.81;70.25
72428;BME280;60419;48.880;18.036;2023-09-19T12:19:56;98800.47;;;21.19;69.56
72428;BME280;60419;48.880;18.036;2023-09-19T12:22:42;98809.25;;;21.46;69.34
72428;BME280;60419;48.880;18.036;2023-09-19T12:25:43;98809.94;;;22.02;67.23
72428;BME280;60419;48.880;18.036;2023-09-19T12:28:41;98813.22;;;22.54;67.30
72428;BME280;60419;48.880;18.036;2023-09-19T12:31:27;98814.50;;;21.73;64.63
72428;BME280;60419;48.880;18.036;2023-09-19T12:34:19;98813.78;;;21.90;66.35
72428;BME280;60419;48.880;18.036;2023-09-19T12:40:07;98805.34;;;22.53;64.22
72428;BME280;60419;48.880;18.036;2023-09-19T12:43:03;98808.81;;;22.25;63.03
72428;BME280;60419;48.880;18.036;2023-09-19T12:45:50;98814.00;;;22.69;62.98
72428;BME280;60419;48.880;18.036;2023-09-19T12:48:35;98804.59;;;22.92;60.56
72428;BME280;60419;48.880;18.036;2023-09-19T12:51:22;98814.81;;;23.09;59.93
72428;BME280;60419;48.880;18.036;2023-09-19T12:54:11;98813.63;;;22.85;59.76
72428;BME280;60419;48.880;18.036;2023-09-19T12:56:56;98804.56;;;23.06;59.68
72428;BME280;60419;48.880;18.036;2023-09-19T12:59:43;98810.50;;;22.83;59.74
72428;BME280;60419;48.880;18.036;2023-09-19T13:02:28;98812.84;;;22.85;59.89
72428;BME280;60419;48.880;18.036;2023-09-19T13:05:14;98811.50;;;22.03;61.51
72428;BME280;60419;48.880;18.036;2023-09-19T13:08:20;98816.53;;;21.94;61.22
72428;BME280;60419;48.880;18.036;2023-09-19T13:11:16;98809.22;;;21.39;62.80
72428;BME280;60419;48.880;18.036;2023-09-19T13:14:24;98806.44;;;22.16;61.91
72428;BME280;60419;48.880;18.036;2023-09-19T13:17:13;98817.91;;;22.36;60.64
72428;BME280;60419;48.880;18.036;2023-09-19T13:20:01;98810.75;;;22.13;62.01
72428;BME280;60419;48.880;18.036;2023-09-19T13:22:48;98813.50;;;21.33;64.33
72428;BME280;60419;48.880;18.036;2023-09-19T13:25:39;98820.66;;;20.49;68.05
72428;BME280;60419;48.880;18.036;2023-09-19T13:28:25;98820.34;;;20.57;68.61
72428;BME280;60419;48.880;18.036;2023-09-19T13:31:11;98822.72;;;21.11;67.18
72428;BME280;60419;48.880;18.036;2023-09-19T13:33:57;98820.59;;;21.41;66.37
72428;BME280;60419;48.880;18.036;2023-09-19T13:36:42;98816.00;;;21.01;66.13
72428;BME280;60419;48.880;18.036;2023-09-19T13:39:28;98837.13;;;20.97;67.89
72428;BME280;60419;48.880;18.036;2023-09-19T13:42:13;98840.72;;;20.56;66.25
72428;BME280;60419;48.880;18.036;2023-09-19T13:44:59;98849.63;;;20.12;66.71
72428;BME280;60419;48.880;18.036;2023-09-19T13:47:44;98848.16;;;19.88;66.16
72428;BME280;60419;48.880;18.036;2023-09-19T13:50:30;98845.41;;;19.58;68.16
72428;BME280;60419;48.880;18.036;2023-09-19T13:53:16;98849.97;;;19.50;70.12
72428;BME280;60419;48.880;18.036;2023-09-19T13:56:02;98843.78;;;19.84;69.50
72428;BME280;60419;48.880;18.036;2023-09-19T13:58:47;98836.81;;;19.90;68.87
72428;BME280;60419;48.880;18.036;2023-09-19T14:01:33;98838.06;;;19.96;69.12
72428;BME280;60419;48.880;18.036;2023-09-19T14:04:19;98838.44;;;19.94;70.05
72428;BME280;60419;48.880;18.036;2023-09-19T14:07:06;98835.78;;;20.02;70.10
72428;BME280;60419;48.880;18.036;2023-09-19T14:09:52;98840.97;;;20.10;69.44
72428;BME280;60419;48.880;18.036;2023-09-19T14:12:38;98830.75;;;19.73;70.30
72428;BME280;60419;48.880;18.036;2023-09-19T14:15:28;98833.34;;;20.64;69.05
72428;BME280;60419;48.880;18.036;2023-09-19T14:18:20;98826.25;;;21.07;67.88
72428;BME280;60419;48.880;18.036;2023-09-19T14:21:07;98827.69;;;21.42;66.30
72428;BME280;60419;48.880;18.036;2023-09-19T14:23:56;98831.28;;;21.54;65.85
72428;BME280;60419;48.880;18.036;2023-09-19T14:26:41;98829.59;;;21.35;65.23
72428;BME280;60419;48.880;18.036;2023-09-19T14:29:27;98828.97;;;21.59;64.16
72428;BME280;60419;48.880;18.036;2023-09-19T14:32:13;98820.69;;;21.56;63.86
72428;BME280;60419;48.880;18.036;2023-09-19T14:34:58;98817.19;;;21.55;63.13
72428;BME280;60419;48.880;18.036;2023-09-19T14:37:44;98822.69;;;21.62;63.37
72428;BME280;60419;48.880;18.036;2023-09-19T14:40:30;98821.53;;;21.63;63.79
72428;BME280;60419;48.880;18.036;2023-09-19T14:43:16;98817.66;;;21.13;65.10
72428;BME280;60419;48.880;18.036;2023-09-19T14:46:08;98827.25;;;21.37;62.70
72428;BME280;60419;48.880;18.036;2023-09-19T14:48:56;98811.97;;;22.23;60.72
72428;BME280;60419;48.880;18.036;2023-09-19T14:51:44;98825.81;;;23.23;58.83
72428;BME280;60419;48.880;18.036;2023-09-19T14:54:32;98832.88;;;23.39;57.82
72428;BME280;60419;48.880;18.036;2023-09-19T14:57:18;98833.13;;;23.95;56.95
72428;BME280;60419;48.880;18.036;2023-09-19T15:00:04;98833.78;;;24.27;57.52
72428;BME280;60419;48.880;18.036;2023-09-19T15:02:50;98839.63;;;24.40;55.66
72428;BME280;60419;48.880;18.036;2023-09-19T15:05:37;98837.50;;;23.85;56.38
72428;BME280;60419;48.880;18.036;2023-09-19T15:08:22;98836.88;;;24.40;57.02